Time;durP1;ratioP1;P1;durP2;ratioP2;P2;SDS_P1;SDS_P2;PMS_P1;PMS_P2;Temp;Humidity;BMP_temperature;BMP_pressure;BME280_temperature;BME280_humidity;BME280_pressure;Samples;Min_cycle;Max_cycle;Signal;HPM_P1;HPM_P2
2023/08/28 00:00:33;;;;;;;0.70;0.40;;;17.40;52.60;;;;;;5137041;27;20683;-55
2023/08/28 00:03:00;;;;;;;0.60;0.30;;;17.40;59.20;;;;;;5133515;27;20532;-54
2023/08/28 00:05:29;;;;;;;0.68;0.30;;;17.50;60.60;;;;;;5136832;27;20429;-54
2023/08/28 00:07:56;;;;;;;1.80;0.30;;;17.50;46.20;;;;;;5131966;27;20499;-54
2023/08/28 00:10:24;;;;;;;1.50;0.40;;;17.50;55.60;;;;;;5136545;27;20418;-54
2023/08/28 00:12:51;;;;;;;0.60;0.30;;;17.40;45.90;;;;;;5120616;27;20707;-55
2023/08/28 00:15:19;;;;;;;0.88;0.30;;;17.30;63.50;;;;;;5114982;28;20492;-56
2023/08/28 00:17:48;;;;;;;0.98;0.30;;;17.40;63.50;;;;;;5115004;28;20489;-54
2023/08/28 00:20:16;;;;;;;0.50;0.30;;;17.30;58.30;;;;;;5114839;28;20447;-54
2023/08/28 00:22:43;;;;;;;0.80;0.40;;;17.30;50.90;;;;;;5114617;28;20847;-50
2023/08/28 00:25:11;;;;;;;0.70;0.30;;;17.30;77.40;;;;;;5122723;28;20894;-52
2023/08/28 00:27:38;;;;;;;0.60;0.30;;;17.30;84.20;;;;;;5119104;28;20428;-55
2023/08/28 00:30:06;;;;;;;0.50;0.30;;;17.40;82.30;;;;;;5115702;28;20428;-55
2023/08/28 00:32:33;;;;;;;1.10;0.30;;;17.30;56.90;;;;;;5128057;27;20812;-51
2023/08/28 00:35:02;;;;;;;0.80;0.30;;;17.20;73.40;;;;;;5135424;28;20441;-55
2023/08/28 00:37:29;;;;;;;0.70;0.30;;;17.30;73.60;;;;;;5129558;28;20456;-50
2023/08/28 00:39:56;;;;;;;0.68;0.30;;;17.40;72.00;;;;;;5134643;28;20414;-52
2023/08/28 00:42:23;;;;;;;0.85;0.35;;;17.50;48.90;;;;;;5131338;28;20887;-50
2023/08/28 00:44:50;;;;;;;0.53;0.30;;;17.60;53.80;;;;;;5132635;28;20432;-50
2023/08/28 00:47:17;;;;;;;0.60;0.25;;;17.60;40.30;;;;;;5114783;28;20436;-48
2023/08/28 00:49:45;;;;;;;1.30;0.40;;;17.60;37.60;;;;;;5114572;28;20568;-53
2023/08/28 00:52:14;;;;;;;0.68;0.30;;;17.60;46.00;;;;;;5131316;28;20487;-50
2023/08/28 00:54:41;;;;;;;0.50;0.30;;;17.40;80.20;;;;;;5134295;27;20427;-54
2023/08/28 00:57:10;;;;;;;0.75;0.30;;;17.20;93.40;;;;;;5115546;28;20443;-51
2023/08/28 00:59:37;;;;;;;0.50;0.30;;;16.90;99.90;;;;;;5116694;28;20805;-54
2023/08/28 01:02:04;;;;;;;1.30;0.38;;;16.70;99.90;;;;;;5135930;28;20415;-54
2023/08/28 01:04:31;;;;;;;0.68;0.30;;;16.60;99.90;;;;;;5132015;28;20491;-55
2023/08/28 01:07:09;;;;;;;0.88;0.30;;;16.50;99.90;;;;;;5114488;28;20416;-53
2023/08/28 01:09:52;;;;;;;0.60;0.30;;;16.30;99.90;;;;;;5116021;28;20443;-53
2023/08/28 01:12:25;;;;;;;0.50;0.30;;;16.10;99.90;;;;;;5113178;28;20436;-54
2023/08/28 01:14:59;;;;;;;0.70;0.30;;;16.00;99.90;;;;;;5124332;28;20546;-54
2023/08/28 01:17:29;;;;;;;1.00;0.40;;;15.90;99.90;;;;;;5133357;28;20713;-53
2023/08/28 01:19:58;;;;;;;0.80;0.40;;;15.90;99.90;;;;;;5128687;28;20736;-54
2023/08/28 01:22:32;;;;;;;1.00;0.30;;;15.90;99.90;;;;;;5131320;28;20423;-51
2023/08/28 01:25:09;;;;;;;0.50;0.30;;;15.90;99.90;;;;;;5115418;28;20459;-53
2023/08/28 01:27:37;;;;;;;0.50;0.30;;;16.00;99.90;;;;;;5120853;28;20470;-54
2023/08/28 01:30:12;;;;;;;0.45;0.30;;;16.00;99.90;;;;;;5133770;27;20426;-53
2023/08/28 01:32:40;;;;;;;1.40;0.30;;;16.10;99.90;;;;;;5130473;27;20498;-53
2023/08/28 01:35:10;;;;;;;0.60;0.38;;;16.20;99.90;;;;;;5138181;27;20968;-55
2023/08/28 01:37:46;;;;;;;0.55;0.30;;;16.30;99.90;;;;;;5131201;27;20430;-55
2023/08/28 01:40:16;;;;;;;0.60;0.40;;;16.50;99.90;;;;;;5137369;27;20514;-52
2023/08/28 01:42:47;;;;;;;0.50;0.30;;;16.60;99.90;;;;;;5130860;27;20424;-53
2023/08/28 01:45:16;;;;;;;0.60;0.30;;;16.50;99.90;;;;;;5123517;27;20440;-54
2023/08/28 01:47:43;;;;;;;1.40;0.40;;;16.40;99.90;;;;;;5132901;27;20904;-52
2023/08/28 01:50:11;;;;;;;0.70;0.35;;;16.20;99.90;;;;;;5136965;27;20542;-51
2023/08/28 01:52:38;;;;;;;0.50;0.30;;;16.20;99.90;;;;;;5124452;27;20424;-53
2023/08/28 01:55:05;;;;;;;0.60;0.40;;;16.20;99.90;;;;;;5129735;27;20430;-54
2023/08/28 01:57:34;;;;;;;0.43;0.30;;;16.20;99.90;;;;;;5121301;27;20432;-53
2023/08/28 02:00:01;;;;;;;1.20;0.40;;;16.20;99.90;;;;;;5133922;27;20522;-49
2023/08/28 02:02:28;;;;;;;0.60;0.30;;;16.20;99.90;;;;;;5132875;27;20475;-54
2023/08/28 02:04:55;;;;;;;0.50;0.30;;;16.20;99.90;;;;;;5134340;27;20426;-53
2023/08/28 02:07:22;;;;;;;0.70;0.30;;;16.20;99.90;;;;;;5121030;27;20900;-54
2023/08/28 02:09:48;;;;;;;0.60;0.30;;;16.20;99.90;;;;;;5115769;28;20416;-53
2023/08/28 02:12:15;;;;;;;0.60;0.30;;;16.30;99.90;;;;;;5127306;27;20499;-54
2023/08/28 02:14:44;;;;;;;0.60;0.30;;;16.40;99.90;;;;;;5135713;27;20426;-51
2023/08/28 02:17:11;;;;;;;0.50;0.30;;;16.50;99.90;;;;;;5124121;27;20430;-54
2023/08/28 02:19:38;;;;;;;0.55;0.30;;;16.50;99.90;;;;;;5138394;27;20479;-55
2023/08/28 02:22:05;;;;;;;0.50;0.30;;;16.60;99.90;;;;;;5133671;27;20491;-53
2023/08/28 02:24:32;;;;;;;0.50;0.30;;;16.60;99.90;;;;;;5138807;27;20422;-55
2023/08/28 02:27:00;;;;;;;0.70;0.30;;;16.70;99.90;;;;;;5118081;27;20516;-54
2023/08/28 02:29:27;;;;;;;0.50;0.30;;;16.70;99.90;;;;;;5118240;28;20424;-55
2023/08/28 02:31:55;;;;;;;0.70;0.38;;;16.70;99.90;;;;;;5133401;27;20826;-52
2023/08/28 02:34:22;;;;;;;0.70;0.30;;;16.60;99.90;;;;;;5135614;27;20414;-49
2023/08/28 02:36:49;;;;;;;0.60;0.30;;;16.50;99.90;;;;;;5133443;27;20434;-55
2023/08/28 02:39:16;;;;;;;2.15;0.32;;;16.50;99.90;;;;;;5135263;27;20753;-52
2023/08/28 02:41:43;;;;;;;1.27;0.30;;;16.40;99.90;;;;;;5136623;27;20426;-49
2023/08/28 02:44:10;;;;;;;0.60;0.30;;;16.40;99.90;;;;;;5131471;27;20433;-51
2023/08/28 02:46:37;;;;;;;1.10;0.30;;;16.30;99.90;;;;;;5135154;27;20471;-50
2023/08/28 02:49:05;;;;;;;0.60;0.38;;;16.30;99.90;;;;;;5128464;27;20468;-49
2023/08/28 02:51:32;;;;;;;0.80;0.30;;;16.30;99.90;;;;;;5137557;27;20506;-54
2023/08/28 02:53:59;;;;;;;0.50;0.30;;;16.40;99.90;;;;;;5134403;27;20495;-52
2023/08/28 02:56:27;;;;;;;1.23;0.30;;;16.50;99.90;;;;;;5117430;28;20420;-49
2023/08/28 02:58:56;;;;;;;0.70;0.30;;;16.60;99.90;;;;;;5116796;27;20713;-52
2023/08/28 03:01:23;;;;;;;0.55;0.30;;;16.60;99.90;;;;;;5115203;27;20458;-52
2023/08/28 03:03:50;;;;;;;0.50;0.30;;;16.60;99.90;;;;;;5129518;27;21015;-52
2023/08/28 03:06:18;;;;;;;0.50;0.30;;;16.70;99.90;;;;;;5133173;27;20430;-54
2023/08/28 03:08:45;;;;;;;0.70;0.30;;;16.70;99.90;;;;;;5129359;27;20487;-55
2023/08/28 03:11:12;;;;;;;2.67;0.30;;;16.80;98.10;;;;;;5134196;27;20441;-52
2023/08/28 03:13:39;;;;;;;0.50;0.30;;;16.90;91.80;;;;;;5129223;27;20902;-52
2023/08/28 03:16:06;;;;;;;1.40;0.30;;;16.90;91.10;;;;;;5134653;27;20434;-51
2023/08/28 03:18:33;;;;;;;0.60;0.30;;;16.90;72.50;;;;;;5130337;27;20479;-54
2023/08/28 03:21:00;;;;;;;0.70;0.30;;;16.80;76.80;;;;;;5134677;27;20438;-49
2023/08/28 03:23:28;;;;;;;0.60;0.40;;;16.70;88.80;;;;;;5124796;27;20503;-51
2023/08/28 03:25:55;;;;;;;0.60;0.30;;;16.60;77.10;;;;;;5132179;27;20888;-49
2023/08/28 03:28:22;;;;;;;0.40;0.20;;;16.50;96.30;;;;;;5129977;27;20423;-52
2023/08/28 03:30:49;;;;;;;1.08;0.30;;;16.50;99.90;;;;;;5136268;27;20427;-51
2023/08/28 03:33:16;;;;;;;0.50;0.30;;;16.60;99.90;;;;;;5121935;27;20438;-51
2023/08/28 03:35:43;;;;;;;0.67;0.30;;;16.60;99.90;;;;;;5116742;28;20830;-50
2023/08/28 03:38:11;;;;;;;0.60;0.30;;;16.60;94.50;;;;;;5120333;27;20926;-52
2023/08/28 03:40:39;;;;;;;0.50;0.30;;;16.40;99.40;;;;;;5136510;27;20818;-50
2023/08/28 03:43:06;;;;;;;0.50;0.30;;;16.30;99.90;;;;;;5130847;27;20430;-53
2023/08/28 03:45:33;;;;;;;0.80;0.30;;;16.40;99.90;;;;;;5137002;27;20767;-52
2023/08/28 03:48:00;;;;;;;0.60;0.30;;;16.40;99.90;;;;;;5125647;27;20440;-54
2023/08/28 03:50:29;;;;;;;0.90;0.30;;;16.30;97.30;;;;;;5115157;28;20427;-49
2023/08/28 03:52:56;;;;;;;2.00;0.30;;;16.10;99.90;;;;;;5118200;27;20788;-51
2023/08/28 03:55:24;;;;;;;1.60;0.32;;;16.00;99.90;;;;;;5115784;28;20924;-54
2023/08/28 03:57:52;;;;;;;0.60;0.30;;;16.00;99.90;;;;;;5121783;27;20436;-49
2023/08/28 04:00:20;;;;;;;0.90;0.30;;;16.10;99.90;;;;;;5116986;27;20554;-49
2023/08/28 04:02:47;;;;;;;0.70;0.30;;;16.20;99.90;;;;;;5130600;27;20430;-53
2023/08/28 04:05:14;;;;;;;0.52;0.30;;;16.30;99.90;;;;;;5133842;27;20841;-51
2023/08/28 04:07:42;;;;;;;0.60;0.30;;;16.20;99.90;;;;;;5129427;27;20423;-53
2023/08/28 04:10:10;;;;;;;0.90;0.30;;;16.30;99.90;;;;;;5132990;27;20513;-51
2023/08/28 04:12:37;;;;;;;0.57;0.30;;;16.40;99.90;;;;;;5130150;27;20431;-51
2023/08/28 04:15:07;;;;;;;0.60;0.40;;;16.50;97.80;;;;;;5121426;27;20439;-50
2023/08/28 04:17:35;;;;;;;0.70;0.40;;;16.60;97.80;;;;;;5130463;27;20453;-50
2023/08/28 04:20:10;;;;;;;0.40;0.30;;;16.60;97.20;;;;;;5131017;27;20494;-49
2023/08/28 04:22:37;;;;;;;0.82;0.35;;;16.60;99.90;;;;;;5115113;28;20427;-51
2023/08/28 04:25:05;;;;;;;2.00;0.30;;;16.50;96.00;;;;;;5113571;28;20448;-48
2023/08/28 04:27:32;;;;;;;0.53;0.30;;;16.40;99.90;;;;;;5132332;27;20438;-48
2023/08/28 04:29:59;;;;;;;1.40;0.30;;;16.40;99.90;;;;;;5129493;27;20435;-49
2023/08/28 04:32:27;;;;;;;1.00;0.35;;;16.40;97.80;;;;;;5129613;27;20430;-51
2023/08/28 04:34:54;;;;;;;2.00;0.40;;;16.20;99.90;;;;;;5133050;28;20419;-51
2023/08/28 04:37:21;;;;;;;0.88;0.40;;;16.30;99.90;;;;;;5133071;28;20492;-52
2023/08/28 04:39:48;;;;;;;0.60;0.40;;;16.10;99.90;;;;;;5134905;28;20498;-48
2023/08/28 04:42:16;;;;;;;0.70;0.40;;;16.10;99.90;;;;;;5132487;28;20784;-48
2023/08/28 04:44:43;;;;;;;0.55;0.30;;;16.20;99.90;;;;;;5132215;28;20460;-51
2023/08/28 04:47:10;;;;;;;0.70;0.40;;;16.30;99.90;;;;;;5128749;28;20434;-51
2023/08/28 04:49:38;;;;;;;1.90;0.40;;;16.40;99.90;;;;;;5129275;28;20917;-53
2023/08/28 04:52:06;;;;;;;0.60;0.40;;;16.50;99.90;;;;;;5127310;28;20426;-50
2023/08/28 04:54:33;;;;;;;2.20;0.40;;;16.50;99.90;;;;;;5126895;28;20516;-51
2023/08/28 04:57:00;;;;;;;0.60;0.40;;;16.50;99.90;;;;;;5130564;28;20418;-51
2023/08/28 04:59:27;;;;;;;0.60;0.40;;;16.60;99.90;;;;;;5129476;28;20438;-49
2023/08/28 05:01:54;;;;;;;0.80;0.30;;;16.50;99.90;;;;;;5132165;28;20426;-51
2023/08/28 05:04:21;;;;;;;1.10;0.40;;;16.50;99.90;;;;;;5131049;28;20855;-53
2023/08/28 05:06:49;;;;;;;1.00;0.40;;;16.50;99.90;;;;;;5136709;27;20822;-54
2023/08/28 05:09:16;;;;;;;0.63;0.32;;;16.40;99.90;;;;;;5136663;27;20463;-54
2023/08/28 05:11:44;;;;;;;0.70;0.40;;;16.30;99.90;;;;;;5137420;27;20483;-53
2023/08/28 05:14:11;;;;;;;0.80;0.40;;;16.40;99.90;;;;;;5136036;27;20491;-54
2023/08/28 05:16:38;;;;;;;1.08;0.40;;;16.40;99.90;;;;;;5137520;27;20778;-53
2023/08/28 05:19:05;;;;;;;1.50;0.30;;;16.50;99.90;;;;;;5135308;27;20433;-51
2023/08/28 05:21:32;;;;;;;2.25;0.40;;;16.40;99.90;;;;;;5134705;27;20479;-49
2023/08/28 05:24:01;;;;;;;1.10;0.40;;;16.40;99.90;;;;;;5137235;27;20450;-51
2023/08/28 05:26:28;;;;;;;0.70;0.40;;;16.20;99.90;;;;;;5135069;27;20490;-52
2023/08/28 05:28:55;;;;;;;1.20;0.40;;;16.10;99.90;;;;;;5134332;27;20414;-53
2023/08/28 05:31:21;;;;;;;0.70;0.40;;;16.20;99.90;;;;;;5132498;27;20499;-51
2023/08/28 05:33:48;;;;;;;0.68;0.40;;;16.30;99.90;;;;;;5130145;27;20945;-49
2023/08/28 05:36:16;;;;;;;0.60;0.40;;;16.40;99.90;;;;;;5132435;27;20479;-50
2023/08/28 05:38:42;;;;;;;0.80;0.45;;;16.50;99.90;;;;;;5119100;27;20511;-50
2023/08/28 05:41:11;;;;;;;0.60;0.40;;;16.50;99.90;;;;;;5123608;27;20430;-52
2023/08/28 05:43:38;;;;;;;0.70;0.40;;;16.50;99.90;;;;;;5131206;27;20864;-52
2023/08/28 05:46:06;;;;;;;0.70;0.40;;;16.50;99.90;;;;;;5132331;27;20426;-51
2023/08/28 05:48:33;;;;;;;0.65;0.40;;;16.50;99.90;;;;;;5131758;27;20444;-53
2023/08/28 05:51:00;;;;;;;0.90;0.50;;;16.60;99.90;;;;;;5136090;27;20418;-51
2023/08/28 05:53:29;;;;;;;0.80;0.50;;;16.60;99.90;;;;;;5125535;27;20428;-53
2023/08/28 05:55:56;;;;;;;0.70;0.47;;;16.60;99.90;;;;;;5116533;28;20416;-52
2023/08/28 05:58:24;;;;;;;1.00;0.50;;;16.40;99.90;;;;;;5122400;27;20768;-52
2023/08/28 06:00:51;;;;;;;0.70;0.43;;;16.30;99.90;;;;;;5135941;27;20435;-53
2023/08/28 06:03:18;;;;;;;0.70;0.50;;;16.40;99.90;;;;;;5128720;27;20438;-54
2023/08/28 06:05:45;;;;;;;0.65;0.50;;;16.30;99.90;;;;;;5136204;27;20457;-51
2023/08/28 06:08:12;;;;;;;0.80;0.40;;;16.40;99.90;;;;;;5120433;27;20439;-49
2023/08/28 06:10:40;;;;;;;0.70;0.50;;;16.40;99.90;;;;;;5119520;27;20729;-48
2023/08/28 06:13:07;;;;;;;1.40;0.50;;;16.40;99.90;;;;;;5132131;27;20889;-52
2023/08/28 06:15:36;;;;;;;1.63;0.50;;;16.40;99.90;;;;;;5134155;27;20803;-52
2023/08/28 06:18:04;;;;;;;0.80;0.50;;;16.50;99.90;;;;;;5129583;27;20425;-50
2023/08/28 06:20:32;;;;;;;1.25;0.50;;;16.70;99.90;;;;;;5134439;27;20914;-55
2023/08/28 06:23:00;;;;;;;0.80;0.50;;;16.70;99.90;;;;;;5130567;27;20908;-51
2023/08/28 06:25:27;;;;;;;0.77;0.50;;;16.80;99.90;;;;;;5131585;27;20435;-50
2023/08/28 06:27:54;;;;;;;0.90;0.50;;;17.00;99.90;;;;;;5135953;27;20422;-53
2023/08/28 06:30:21;;;;;;;0.85;0.50;;;16.90;99.90;;;;;;5128414;27;20889;-50
2023/08/28 06:32:50;;;;;;;2.40;0.60;;;16.90;99.90;;;;;;5129997;27;20530;-52
2023/08/28 06:35:17;;;;;;;0.80;0.50;;;17.00;99.90;;;;;;5124210;27;20432;-51
2023/08/28 06:37:44;;;;;;;1.10;0.70;;;17.10;99.90;;;;;;5131120;27;20418;-52
2023/08/28 06:40:11;;;;;;;0.90;0.60;;;17.00;99.90;;;;;;5128180;27;20432;-53
2023/08/28 06:42:38;;;;;;;1.10;0.50;;;16.90;99.90;;;;;;5112997;28;21038;-50
2023/08/28 06:45:06;;;;;;;1.60;0.80;;;16.90;99.90;;;;;;5131569;27;20495;-54
2023/08/28 06:47:33;;;;;;;1.02;0.60;;;17.00;99.90;;;;;;5114917;27;20432;-52
2023/08/28 06:50:02;;;;;;;1.10;0.70;;;17.10;99.90;;;;;;5118740;27;20426;-53
2023/08/28 06:52:29;;;;;;;1.30;0.60;;;17.10;99.90;;;;;;5132945;27;20857;-53
2023/08/28 06:54:56;;;;;;;2.03;0.60;;;17.00;99.90;;;;;;5128823;27;20436;-52
2023/08/28 06:57:23;;;;;;;2.00;0.60;;;17.00;99.90;;;;;;5122483;27;20434;-53
2023/08/28 06:59:50;;;;;;;1.40;0.77;;;16.80;99.90;;;;;;5128932;27;20430;-54
2023/08/28 07:02:17;;;;;;;1.30;0.60;;;16.70;99.90;;;;;;5132087;27;20441;-53
2023/08/28 07:04:44;;;;;;;1.20;0.60;;;16.80;99.90;;;;;;5122712;27;20488;-51
2023/08/28 07:07:16;;;;;;;1.00;0.70;;;17.00;99.90;;;;;;5129494;27;20815;-51
2023/08/28 07:09:43;;;;;;;1.20;0.70;;;17.10;99.90;;;;;;5128185;27;20437;-56
2023/08/28 07:12:10;;;;;;;1.20;0.70;;;17.00;99.90;;;;;;5118422;27;20860;-53
2023/08/28 07:14:37;;;;;;;0.90;0.70;;;17.10;99.90;;;;;;5124935;27;20428;-53
2023/08/28 07:17:04;;;;;;;1.40;0.80;;;16.80;99.90;;;;;;5134214;27;20868;-52
2023/08/28 07:19:32;;;;;;;1.30;0.60;;;16.90;99.90;;;;;;5123440;27;20437;-54
2023/08/28 07:22:00;;;;;;;1.10;0.70;;;17.10;99.90;;;;;;5126919;27;20879;-53
2023/08/28 07:24:28;;;;;;;2.10;0.60;;;17.20;99.90;;;;;;5124562;27;20469;-52
2023/08/28 07:26:55;;;;;;;1.10;0.80;;;17.30;98.00;;;;;;5133341;27;20833;-54
2023/08/28 07:29:22;;;;;;;0.90;0.70;;;17.20;92.90;;;;;;5125956;27;20458;-54
2023/08/28 07:31:49;;;;;;;1.48;0.63;;;17.30;98.40;;;;;;5133911;27;20422;-53
2023/08/28 07:34:16;;;;;;;1.10;0.70;;;17.40;96.70;;;;;;5095641;27;20426;-53
2023/08/28 07:36:44;;;;;;;1.65;0.70;;;17.40;89.40;;;;;;5094261;28;20425;-54
2023/08/28 07:39:11;;;;;;;1.00;0.70;;;17.30;92.60;;;;;;5094123;28;20845;-51
2023/08/28 07:41:39;;;;;;;1.58;0.70;;;17.30;98.80;;;;;;5093321;28;20417;-52
2023/08/28 07:44:06;;;;;;;1.10;0.70;;;17.30;99.90;;;;;;5106683;28;20432;-50
2023/08/28 07:46:33;;;;;;;1.00;0.60;;;17.30;99.90;;;;;;5110283;28;20501;-51
2023/08/28 07:49:00;;;;;;;1.25;0.70;;;17.30;99.50;;;;;;5106497;28;20424;-51
2023/08/28 07:51:27;;;;;;;0.90;0.60;;;17.50;99.60;;;;;;5109832;28;20440;-48
2023/08/28 07:53:55;;;;;;;0.80;0.55;;;17.60;95.20;;;;;;5106625;28;20466;-54
2023/08/28 07:56:22;;;;;;;1.30;0.60;;;17.90;83.60;;;;;;5110628;28;20862;-53
2023/08/28 07:58:51;;;;;;;1.70;0.60;;;18.10;64.30;;;;;;5096268;28;20429;-53
2023/08/28 08:01:18;;;;;;;0.80;0.60;;;18.20;42.80;;;;;;5093291;28;20930;-53
2023/08/28 08:03:45;;;;;;;0.90;0.60;;;18.20;35.10;;;;;;5093487;28;20422;-51
2023/08/28 08:06:12;;;;;;;0.80;0.50;;;18.20;33.40;;;;;;5105623;28;20509;-52
2023/08/28 08:08:39;;;;;;;1.05;0.60;;;18.20;28.40;;;;;;5092110;28;20566;-51
2023/08/28 08:11:06;;;;;;;1.60;0.50;;;18.00;52.10;;;;;;5092507;28;20417;-52
2023/08/28 08:13:33;;;;;;;0.90;0.60;;;17.90;45.60;;;;;;5101915;28;20572;-54
2023/08/28 08:16:02;;;;;;;1.10;0.50;;;17.90;39.40;;;;;;5108136;28;20487;-52
2023/08/28 08:18:29;;;;;;;1.00;0.50;;;18.00;18.90;;;;;;5099062;28;20878;-53
2023/08/28 08:20:56;;;;;;;0.82;0.70;;;18.20;13.90;;;;;;5110467;28;20439;-51
2023/08/28 08:23:23;;;;;;;0.80;0.50;;;18.20;1.00;;;;;;5101671;28;20575;-51
2023/08/28 08:25:51;;;;;;;1.25;0.60;;;18.40;3.80;;;;;;5095871;28;20438;-52
2023/08/28 08:28:18;;;;;;;1.13;0.50;;;18.40;1.00;;;;;;5092536;28;20436;-55
2023/08/28 08:30:45;;;;;;;0.93;0.60;;;18.40;1.00;;;;;;5090556;28;22931;-53
2023/08/28 08:33:14;;;;;;;0.75;0.50;;;18.50;1.00;;;;;;5127409;27;20946;-53
2023/08/28 08:35:41;;;;;;;0.87;0.50;;;18.50;1.00;;;;;;5122692;28;20428;-53
2023/08/28 08:38:08;;;;;;;0.80;0.50;;;18.40;1.00;;;;;;5119484;27;20791;-54
2023/08/28 08:40:38;;;;;;;0.60;0.50;;;18.30;1.00;;;;;;5125869;27;20507;-54
2023/08/28 08:43:05;;;;;;;0.60;0.50;;;18.10;1.00;;;;;;5127405;27;20787;-54
2023/08/28 08:45:35;;;;;;;0.70;0.40;;;18.00;1.00;;;;;;5126169;27;20431;-54
2023/08/28 08:48:06;;;;;;;0.60;0.50;;;17.70;1.00;;;;;;5129949;27;20506;-54
2023/08/28 08:50:37;;;;;;;0.80;0.40;;;17.90;1.00;;;;;;5133007;27;20783;-54
2023/08/28 08:53:10;;;;;;;0.63;0.50;;;17.80;1.00;;;;;;5137205;27;20431;-54
2023/08/28 08:55:41;;;;;;;0.80;0.40;;;17.70;1.00;;;;;;5121837;27;20727;-51
2023/08/28 08:58:12;;;;;;;0.70;0.40;;;17.70;1.00;;;;;;5138389;27;20449;-50
2023/08/28 09:00:43;;;;;;;0.73;0.40;;;17.80;1.00;;;;;;5130962;27;20473;-51
2023/08/28 09:03:11;;;;;;;0.50;0.40;;;17.70;1.00;;;;;;5136956;27;20424;-55
2023/08/28 09:05:40;;;;;;;0.60;0.38;;;17.60;1.00;;;;;;5134160;27;20776;-53
2023/08/28 09:08:08;;;;;;;0.57;0.40;;;17.60;1.00;;;;;;5127417;27;20420;-54
2023/08/28 09:10:35;;;;;;;0.60;0.30;;;17.80;1.00;;;;;;5139130;27;20489;-52
2023/08/28 09:13:04;;;;;;;0.70;0.40;;;18.00;1.00;;;;;;5132972;27;20424;-52
2023/08/28 09:15:31;;;;;;;1.30;0.40;;;18.20;1.00;;;;;;5125158;27;20430;-52
2023/08/28 09:18:02;;;;;;;0.47;0.30;;;18.10;1.00;;;;;;5130753;27;20508;-55
2023/08/28 09:20:29;;;;;;;1.05;0.40;;;18.10;1.00;;;;;;5133601;27;20403;-53
2023/08/28 09:22:57;;;;;;;1.10;0.40;;;18.00;1.00;;;;;;5133796;27;20857;-53
2023/08/28 09:25:26;;;;;;;0.70;0.40;;;17.90;1.00;;;;;;5143130;27;20416;-52
2023/08/28 09:27:54;;;;;;;0.50;0.40;;;18.00;1.00;;;;;;5134982;27;20439;-53
2023/08/28 09:30:30;;;;;;;0.60;0.40;;;18.00;1.00;;;;;;5131444;27;20422;-50
2023/08/28 09:32:59;;;;;;;0.80;0.40;;;18.00;1.00;;;;;;5115760;27;20430;-50
2023/08/28 09:35:27;;;;;;;1.30;0.40;;;18.10;1.00;;;;;;5114123;27;20450;-52
2023/08/28 09:38:00;;;;;;;0.50;0.30;;;18.20;1.00;;;;;;5130579;27;20430;-53
2023/08/28 09:40:28;;;;;;;0.60;0.40;;;18.30;1.00;;;;;;5124509;27;20458;-54
2023/08/28 09:42:55;;;;;;;0.45;0.30;;;18.40;1.00;;;;;;5124915;27;20732;-52
2023/08/28 09:45:22;;;;;;;0.68;0.40;;;18.40;1.00;;;;;;5131321;27;20418;-47
2023/08/28 09:47:53;;;;;;;0.67;0.40;;;18.40;1.00;;;;;;5134447;27;20841;-53
2023/08/28 09:50:24;;;;;;;1.17;0.45;;;18.60;1.00;;;;;;5126717;27;20495;-52
2023/08/28 09:52:51;;;;;;;1.13;0.40;;;18.60;1.00;;;;;;5114253;27;20880;-52
2023/08/28 09:55:20;;;;;;;0.60;0.40;;;18.70;1.00;;;;;;5129440;27;20435;-54
2023/08/28 09:57:49;;;;;;;0.90;0.40;;;18.70;1.00;;;;;;5130468;27;20448;-52
2023/08/28 10:00:16;;;;;;;0.60;0.30;;;18.80;1.00;;;;;;5124918;27;20445;-53
2023/08/28 10:02:45;;;;;;;0.68;0.40;;;19.00;99.90;;;;;;5120771;27;20415;-52
2023/08/28 10:05:14;;;;;;;0.70;0.40;;;19.10;97.30;;;;;;5111426;27;20529;-54
2023/08/28 10:07:45;;;;;;;0.60;0.40;;;19.10;1.00;;;;;;5132071;27;20418;-54
2023/08/28 10:10:17;;;;;;;0.70;0.40;;;19.20;1.00;;;;;;5117587;27;20434;-50
2023/08/28 10:12:46;;;;;;;0.80;0.40;;;19.30;99.90;;;;;;5115269;27;20722;-50
2023/08/28 10:15:14;;;;;;;0.70;0.40;;;19.50;1.00;;;;;;5128316;27;20428;-50
2023/08/28 10:17:42;;;;;;;0.70;0.40;;;19.60;99.90;;;;;;5126855;27;20416;-52
2023/08/28 10:20:12;;;;;;;0.60;0.40;;;19.70;81.40;;;;;;5117552;27;20572;-54
2023/08/28 10:22:42;;;;;;;0.60;0.40;;;19.70;99.90;;;;;;5127914;27;20434;-49
2023/08/28 10:25:12;;;;;;;0.65;0.40;;;19.90;99.90;;;;;;5121194;27;20443;-53
2023/08/28 10:27:39;;;;;;;0.50;0.30;;;19.80;1.00;;;;;;5135579;27;20410;-54
2023/08/28 10:30:09;;;;;;;1.10;0.30;;;19.80;99.90;;;;;;5128158;27;20438;-50
2023/08/28 10:32:37;;;;;;;0.90;0.30;;;19.90;55.40;;;;;;5135305;27;20514;-54
2023/08/28 10:35:05;;;;;;;0.60;0.37;;;19.90;1.00;;;;;;5121251;27;20495;-53
2023/08/28 10:37:33;;;;;;;0.70;0.37;;;19.80;99.90;;;;;;5135417;27;20791;-57
2023/08/28 10:40:01;;;;;;;0.70;0.40;;;19.70;99.90;;;;;;5114124;27;20979;-55
2023/08/28 10:42:30;;;;;;;0.60;0.40;;;19.80;99.90;;;;;;5130098;27;20845;-56
2023/08/28 10:44:59;;;;;;;0.60;0.40;;;19.80;1.00;;;;;;5121841;27;20553;-55
2023/08/28 10:47:27;;;;;;;0.60;0.30;;;20.00;99.90;;;;;;5122406;27;20414;-54
2023/08/28 10:49:55;;;;;;;1.00;0.30;;;20.20;1.00;;;;;;5131584;27;20758;-56
2023/08/28 10:52:23;;;;;;;0.50;0.30;;;20.10;99.90;;;;;;5126853;27;20441;-57
2023/08/28 10:54:51;;;;;;;0.50;0.30;;;20.10;1.00;;;;;;5131912;27;20443;-54
2023/08/28 10:57:25;;;;;;;0.50;0.40;;;20.40;1.00;;;;;;5133332;27;20464;-56
2023/08/28 10:59:53;;;;;;;0.60;0.30;;;20.40;1.00;;;;;;5113353;27;20434;-56
2023/08/28 11:02:20;;;;;;;0.70;0.40;;;20.40;1.00;;;;;;5121873;27;20423;-57
2023/08/28 11:04:49;;;;;;;0.50;0.30;;;20.50;1.00;;;;;;5119057;27;20790;-54
2023/08/28 11:07:45;;;;;;;0.50;0.30;;;20.50;1.00;;;;;;5114301;27;20423;-57
2023/08/28 11:10:25;;;;;;;0.40;0.30;;;20.30;1.00;;;;;;5129033;27;20482;-57
2023/08/28 11:12:56;;;;;;;0.40;0.28;;;20.10;99.90;;;;;;5117198;27;20422;-57
2023/08/28 11:15:27;;;;;;;0.50;0.30;;;20.00;1.00;;;;;;5125715;27;20497;-58
2023/08/28 11:18:14;;;;;;;0.90;0.30;;;20.00;1.00;;;;;;5112318;27;20467;-58
2023/08/28 11:20:42;;;;;;;1.20;0.30;;;20.00;1.00;;;;;;5117877;27;20766;-58
2023/08/28 11:23:09;;;;;;;0.80;0.40;;;19.70;1.00;;;;;;5118698;27;20998;-58
2023/08/28 11:25:37;;;;;;;0.50;0.30;;;19.70;1.00;;;;;;5127255;27;20488;-57
2023/08/28 11:28:05;;;;;;;0.50;0.30;;;19.70;99.90;;;;;;5112054;27;20438;-58
2023/08/28 11:30:32;;;;;;;1.38;0.30;;;19.70;1.00;;;;;;5127837;27;20497;-58
2023/08/28 11:32:59;;;;;;;0.50;0.30;;;19.70;1.00;;;;;;5111501;27;20443;-58
2023/08/28 11:35:27;;;;;;;0.60;0.30;;;19.60;1.00;;;;;;5122185;27;20826;-58
2023/08/28 11:37:56;;;;;;;0.50;0.30;;;19.50;1.00;;;;;;5124602;27;20755;-58
2023/08/28 11:40:27;;;;;;;0.60;0.40;;;19.60;75.80;;;;;;5132888;27;20860;-58
2023/08/28 11:43:03;;;;;;;0.60;0.40;;;19.50;20.20;;;;;;5127177;27;20871;-58
2023/08/28 11:45:30;;;;;;;0.40;0.30;;;19.50;99.90;;;;;;5116810;27;20477;-58
2023/08/28 11:48:00;;;;;;;0.80;0.32;;;19.60;99.90;;;;;;5121536;27;20491;-59
2023/08/28 11:50:27;;;;;;;0.65;0.30;;;19.90;1.00;;;;;;5123384;27;20419;-56
2023/08/28 11:52:55;;;;;;;0.60;0.30;;;20.10;1.00;;;;;;5122659;27;20428;-59
2023/08/28 11:55:22;;;;;;;0.50;0.30;;;20.10;1.00;;;;;;5119367;27;20436;-59
2023/08/28 11:57:50;;;;;;;0.70;0.40;;;20.10;1.00;;;;;;5132591;27;20434;-58
2023/08/28 12:00:18;;;;;;;0.50;0.30;;;19.90;1.00;;;;;;5108270;27;20424;-59
2023/08/28 12:02:46;;;;;;;0.60;0.30;;;19.90;1.00;;;;;;5122669;27;20432;-59
2023/08/28 12:05:16;;;;;;;0.88;0.40;;;19.90;1.00;;;;;;5126997;27;20415;-57
2023/08/28 12:07:44;;;;;;;0.60;0.30;;;20.00;1.00;;;;;;5115138;27;20870;-58
2023/08/28 12:10:13;;;;;;;0.60;0.30;;;19.90;1.00;;;;;;5132818;27;20426;-59
2023/08/28 12:12:40;;;;;;;0.50;0.20;;;19.80;1.00;;;;;;5124710;27;20476;-56
2023/08/28 12:15:09;;;;;;;0.60;0.35;;;19.80;1.00;;;;;;5132579;27;20515;-58
2023/08/28 12:17:37;;;;;;;0.60;0.30;;;19.70;1.00;;;;;;5132130;27;20861;-58
2023/08/28 12:20:06;;;;;;;0.50;0.30;;;19.80;1.00;;;;;;5114338;27;20428;-58
2023/08/28 12:22:34;;;;;;;0.40;0.30;;;19.80;1.00;;;;;;5112077;28;20434;-58
2023/08/28 12:25:01;;;;;;;0.60;0.40;;;19.80;1.00;;;;;;5118446;27;20489;-57
2023/08/28 12:27:30;;;;;;;0.80;0.30;;;19.60;1.00;;;;;;5110270;27;20489;-57
2023/08/28 12:29:57;;;;;;;0.50;0.30;;;19.50;1.00;;;;;;5125090;27;20429;-56
2023/08/28 12:32:25;;;;;;;0.70;0.20;;;19.50;1.00;;;;;;5115137;27;20469;-57
2023/08/28 12:34:53;;;;;;;0.90;0.30;;;19.40;1.00;;;;;;5119541;27;20845;-64
2023/08/28 12:37:20;;;;;;;0.50;0.30;;;19.30;1.00;;;;;;5101176;28;20525;-63
2023/08/28 12:39:48;;;;;;;0.50;0.30;;;19.30;1.00;;;;;;5121426;28;20767;-63
2023/08/28 12:42:17;;;;;;;0.60;0.30;;;19.20;1.00;;;;;;5090358;28;20638;-63
2023/08/28 12:44:46;;;;;;;0.50;0.30;;;19.20;1.00;;;;;;5111910;28;20410;-63
2023/08/28 12:47:14;;;;;;;0.50;0.30;;;19.10;1.00;;;;;;5114640;27;20492;-63
2023/08/28 12:49:41;;;;;;;0.50;0.30;;;19.20;1.00;;;;;;5108966;28;20416;-63
2023/08/28 12:52:08;;;;;;;0.50;0.30;;;19.30;1.00;;;;;;5102982;28;20509;-62
2023/08/28 12:54:36;;;;;;;0.50;0.30;;;19.40;1.00;;;;;;5108693;28;20587;-62